CheckWX is a tool to help pilots better visualize weather data.  It is not intended as a substitute for an official pre-flight weather briefing.

15:46:55 UTC

KRYV METAR
Watertown Municipal Airport
Watertown, Wisconsin, USA
Current

12 mins ago

KRYV 201535Z AUTO 10018G23KT 2SM UP OVC015 M02/M03 A2984 RMK AO2 T10161030
Observed
Feb-20 @ 15:35 UTC
Wind
  • 100° at 18 KTS
  • Gusting to 23 KTS
Visibility
3,219 meters
Flight Rules
IFR
Conditions
Unknown precipitation
Cloud Levels
  • Overcast at 1,500' AGL
Temperature
-2°C / 28°F
Dewpoint
-3°C / 27°F
Humidity
93%
Altimeter
29.84" Hg
Pressure
1010.52 hPa
Previous

32 mins ago

KRYV 201515Z AUTO 10015G22KT 3SM UP OVC015 M02/M03 A2986 RMK AO2 T10161035
Observed
Feb-20 @ 15:15 UTC
Wind
  • 100° at 15 KTS
  • Gusting to 22 KTS
Visibility
4,828 meters
Flight Rules
MVFR
Conditions
Unknown precipitation
Cloud Levels
  • Overcast at 1,500' AGL
Temperature
-2°C / 28°F
Dewpoint
-4°C / 25°F
Humidity
86%
Altimeter
29.86" Hg
Pressure
1011.22 hPa
Previous

52 mins ago

KRYV 201455Z AUTO 09015G23KT 7SM BKN015 BKN031 OVC049 M02/M03 A2988 RMK AO2 60001 T10161035
Observed
Feb-20 @ 14:55 UTC
Wind
  • 090° at 15 KTS
  • Gusting to 23 KTS
Visibility
11,265 meters
Flight Rules
MVFR
Cloud Levels
  • Broken at 1,500' AGL
  • Broken at 3,100' AGL
  • Overcast at 4,900' AGL
Temperature
-2°C / 28°F
Dewpoint
-4°C / 25°F
Humidity
86%
Altimeter
29.88" Hg
Pressure
1011.82 hPa